LFMT/MPL METAR and TAF weather

Enter ICAO airport designator
Station Type Date Time Source
LFMT METAR 2019/12/14 17:00 UTC NOAA

LFMT 141700Z AUTO 28009KT CAVOK 15/10 Q1012 NOSIG


Station Type Date Time Source
LFMT Decoded METAR 2019/12/14 17:00 UTC NOAA

Montpellier, France (LFMT) 43-35N 003-58E 6M
Dec 14, 2019 - 12:00 PM EST / 2019.12.14 1700 UTC
Wind: from the W (280 degrees) at 10 MPH (9 KT):0
Visibility: greater than 7 mile(s):0
Temperature: 59 F (15 C)
Dew Point: 50 F (10 C)
Relative Humidity: 72%
Pressure (altimeter): 29.88 in. Hg (1012 hPa)
ob: LFMT 141700Z AUTO 28009KT CAVOK 15/10 Q1012 NOSIG
cycle: 17

Station Type Date Time Source
LFMT TAF 2019/12/14 15:25 UTC NOAA

TAF LFMT 141400Z 1415/1515 24010KT 9999 BKN040 OVC050
TEMPO 1415/1423 CAVOK PROB30
TEMPO 1423/1506 VRB05KT 4000 BR
BECMG 1506/1509 02012KT OVC010
TEMPO 1512/1515 NSC

Example: see airport list